HP21 MPMG-MPEJ
Flight info
| Callsign | HP21 |
|---|---|
| Flight time | 0h 24m |
| Altitude | 2500 |
| Route | DIRECT |
| Aircraft | DA40/L-SG/C |
Departure
| Time | 2026-04-21 15:43 |
|---|---|
| Airport | Marcos A. Gelabert International Airport (MPMG) |
Arrival
| Time | 2026-04-21 16:07 |
|---|---|
| Airport | Enrique Adolfo Jimenez Airport (MPEJ) |
| Time | Latitude | Longitude | Altitude | Speed | Heading |
|---|---|---|---|---|---|
| 2026-04-21 15:19 | 8.96878 | -79.55815 | 28 ft | 0 kts | 73° |
| 2026-04-21 15:27 | 8.96880 | -79.55806 | 28 ft | 1 kts | 94° |
| 2026-04-21 15:27 | 8.96877 | -79.55802 | 28 ft | 4 kts | 151° |
| 2026-04-21 15:27 | 8.96844 | -79.55806 | 28 ft | 9 kts | 188° |
| 2026-04-21 15:27 | 8.96777 | -79.55811 | 28 ft | 14 kts | 185° |
| 2026-04-21 15:28 | 8.96727 | -79.55816 | 28 ft | 5 kts | 182° |
| 2026-04-21 15:28 | 8.96689 | -79.55819 | 28 ft | 8 kts | 180° |
| 2026-04-21 15:28 | 8.96682 | -79.55819 | 28 ft | 9 kts | 179° |
| 2026-04-21 15:33 | 8.96657 | -79.55821 | 28 ft | 5 kts | 190° |
| 2026-04-21 15:33 | 8.96596 | -79.55828 | 28 ft | 10 kts | 184° |
| 2026-04-21 15:33 | 8.96551 | -79.55821 | 28 ft | 6 kts | 128° |
| 2026-04-21 15:34 | 8.96522 | -79.55754 | 28 ft | 9 kts | 105° |
| 2026-04-21 15:34 | 8.96521 | -79.55730 | 28 ft | 0 kts | 61° |
| 2026-04-21 15:41 | 8.96532 | -79.55713 | 28 ft | 6 kts | 71° |
| 2026-04-21 15:41 | 8.96539 | -79.55662 | 27 ft | 12 kts | 84° |
| 2026-04-21 15:41 | 8.96604 | -79.55622 | 26 ft | 4 kts | 3° |
| 2026-04-21 15:41 | 8.96727 | -79.55612 | 27 ft | 40 kts | 5° |
| 2026-04-21 15:42 | 8.97129 | -79.55576 | 64 ft | 68 kts | 3° |
| 2026-04-21 15:42 | 8.97611 | -79.55515 | 224 ft | 72 kts | 6° |
| 2026-04-21 15:42 | 8.98121 | -79.55441 | 327 ft | 77 kts | 356° |
| 2026-04-21 15:42 | 8.98612 | -79.55431 | 585 ft | 65 kts | 356° |
| 2026-04-21 15:43 | 8.99119 | -79.55387 | 698 ft | 73 kts | 3° |
| 2026-04-21 15:43 | 8.99673 | -79.55356 | 791 ft | 85 kts | 358° |
| 2026-04-21 15:43 | 9.00238 | -79.55353 | 940 ft | 86 kts | 1° |
| 2026-04-21 15:43 | 9.00763 | -79.55418 | 1331 ft | 73 kts | 351° |
| 2026-04-21 15:44 | 9.01245 | -79.55717 | 1557 ft | 88 kts | 315° |
| 2026-04-21 15:44 | 9.01471 | -79.56261 | 1893 ft | 88 kts | 281° |
| 2026-04-21 15:44 | 9.01516 | -79.56888 | 2069 ft | 87 kts | 277° |
| 2026-04-21 15:44 | 9.01554 | -79.57539 | 2179 ft | 95 kts | 279° |
| 2026-04-21 15:45 | 9.01542 | -79.58150 | 2427 ft | 91 kts | 273° |
| 2026-04-21 15:45 | 9.01573 | -79.58837 | 2472 ft | 106 kts | 287° |
| 2026-04-21 15:45 | 9.01825 | -79.59566 | 2479 ft | 110 kts | 297° |
| 2026-04-21 15:45 | 9.02124 | -79.60273 | 2527 ft | 113 kts | 300° |
| 2026-04-21 15:46 | 9.02480 | -79.61039 | 2461 ft | 121 kts | 303° |
| 2026-04-21 15:46 | 9.02789 | -79.61613 | 2535 ft | 117 kts | 304° |
| 2026-04-21 15:46 | 9.02927 | -79.61895 | 2555 ft | 116 kts | 303° |
| 2026-04-21 15:46 | 9.03230 | -79.62487 | 2520 ft | 120 kts | 300° |
| 2026-04-21 15:47 | 9.03596 | -79.63235 | 2493 ft | 117 kts | 307° |
| 2026-04-21 15:47 | 9.04140 | -79.63822 | 2405 ft | 114 kts | 326° |
| 2026-04-21 15:47 | 9.04762 | -79.64254 | 2508 ft | 103 kts | 328° |
| 2026-04-21 15:47 | 9.05380 | -79.64674 | 2444 ft | 111 kts | 332° |
| 2026-04-21 15:48 | 9.05988 | -79.65128 | 2588 ft | 106 kts | 322° |
| 2026-04-21 15:48 | 9.06517 | -79.65719 | 2489 ft | 121 kts | 315° |
| 2026-04-21 15:48 | 9.07099 | -79.66311 | 2555 ft | 115 kts | 326° |
| 2026-04-21 15:48 | 9.07768 | -79.66718 | 2496 ft | 121 kts | 339° |
| 2026-04-21 15:49 | 9.08549 | -79.67078 | 2457 ft | 121 kts | 338° |
| 2026-04-21 15:49 | 9.09308 | -79.67462 | 2376 ft | 120 kts | 334° |
| 2026-04-21 15:49 | 9.09972 | -79.67924 | 2472 ft | 108 kts | 323° |
| 2026-04-21 15:49 | 9.10580 | -79.68449 | 2416 ft | 112 kts | 325° |
| 2026-04-21 15:50 | 9.11136 | -79.68918 | 2524 ft | 113 kts | 321° |
| 2026-04-21 15:50 | 9.11627 | -79.69544 | 2677 ft | 107 kts | 304° |
| 2026-04-21 15:50 | 9.11929 | -79.70323 | 2495 ft | 132 kts | 293° |
| 2026-04-21 15:50 | 9.12173 | -79.71196 | 2485 ft | 129 kts | 287° |
| 2026-04-21 15:51 | 9.12368 | -79.72049 | 2548 ft | 123 kts | 284° |
| 2026-04-21 15:51 | 9.12473 | -79.72938 | 2472 ft | 129 kts | 278° |
| 2026-04-21 15:51 | 9.12509 | -79.73822 | 2532 ft | 124 kts | 278° |
| 2026-04-21 15:51 | 9.12479 | -79.74479 | 2473 ft | 128 kts | 266° |
| 2026-04-21 15:57 | 9.12466 | -79.74561 | 2462 ft | 129 kts | 266° |
| 2026-04-21 15:57 | 9.12321 | -79.75462 | 2374 ft | 127 kts | 270° |
| 2026-04-21 15:57 | 9.12280 | -79.76374 | 2325 ft | 129 kts | 275° |
| 2026-04-21 15:57 | 9.12375 | -79.77183 | 2515 ft | 109 kts | 294° |
| 2026-04-21 15:58 | 9.12743 | -79.77873 | 2408 ft | 113 kts | 315° |
| 2026-04-21 15:58 | 9.13359 | -79.78264 | 2480 ft | 103 kts | 345° |
| 2026-04-21 15:58 | 9.14073 | -79.78293 | 2494 ft | 104 kts | 14° |
| 2026-04-21 15:58 | 9.14741 | -79.78062 | 2582 ft | 99 kts | 15° |
| 2026-04-21 15:59 | 9.15207 | -79.77992 | 2567 ft | 105 kts | 2° |
| 2026-04-21 15:59 | 9.16149 | -79.78114 | 2659 ft | 101 kts | 349° |
| 2026-04-21 15:59 | 9.16848 | -79.78314 | 2646 ft | 108 kts | 347° |
| 2026-04-21 15:59 | 9.17544 | -79.78567 | 2708 ft | 107 kts | 337° |
| 2026-04-21 16:00 | 9.18208 | -79.78970 | 2622 ft | 118 kts | 331° |
| 2026-04-21 16:00 | 9.18911 | -79.79447 | 2556 ft | 123 kts | 330° |
| 2026-04-21 16:00 | 9.19605 | -79.79949 | 2506 ft | 122 kts | 328° |
| 2026-04-21 16:00 | 9.20067 | -79.80298 | 2446 ft | 123 kts | 326° |
| 2026-04-21 16:01 | 9.20697 | -79.80840 | 2478 ft | 117 kts | 321° |
| 2026-04-21 16:01 | 9.21271 | -79.81430 | 2411 ft | 116 kts | 321° |
| 2026-04-21 16:01 | 9.21798 | -79.82039 | 2406 ft | 114 kts | 313° |
| 2026-04-21 16:01 | 9.22323 | -79.82627 | 2403 ft | 112 kts | 319° |
| 2026-04-21 16:02 | 9.22865 | -79.83224 | 2275 ft | 119 kts | 317° |
| 2026-04-21 16:02 | 9.23460 | -79.83815 | 2095 ft | 119 kts | 323° |
| 2026-04-21 16:02 | 9.23635 | -79.83964 | 2063 ft | 118 kts | 324° |
| 2026-04-21 16:03 | 9.23983 | -79.84258 | 2027 ft | 112 kts | 325° |
| 2026-04-21 16:03 | 9.24616 | -79.84700 | 1869 ft | 108 kts | 334° |
| 2026-04-21 16:03 | 9.25304 | -79.85012 | 1663 ft | 113 kts | 340° |
| 2026-04-21 16:03 | 9.26009 | -79.85369 | 1543 ft | 111 kts | 332° |
| 2026-04-21 16:04 | 9.26663 | -79.85762 | 1485 ft | 110 kts | 330° |
| 2026-04-21 16:04 | 9.27066 | -79.86044 | 1474 ft | 107 kts | 330° |
| 2026-04-21 16:04 | 9.27570 | -79.86398 | 1399 ft | 107 kts | 329° |
| 2026-04-21 16:04 | 9.28185 | -79.86811 | 1221 ft | 107 kts | 334° |
| 2026-04-21 16:05 | 9.28878 | -79.87021 | 1090 ft | 104 kts | 355° |
| 2026-04-21 16:05 | 9.29592 | -79.87032 | 959 ft | 98 kts | 2° |
| 2026-04-21 16:05 | 9.30244 | -79.86993 | 883 ft | 88 kts | 3° |
| 2026-04-21 16:05 | 9.30870 | -79.86937 | 774 ft | 92 kts | 5° |
| 2026-04-21 16:06 | 9.31455 | -79.86887 | 848 ft | 79 kts | 2° |
| 2026-04-21 16:06 | 9.32022 | -79.86860 | 786 ft | 85 kts | 1° |
| 2026-04-21 16:06 | 9.32574 | -79.86861 | 686 ft | 74 kts | 3° |
| 2026-04-21 16:06 | 9.33088 | -79.86842 | 609 ft | 75 kts | 1° |
| 2026-04-21 16:07 | 9.33609 | -79.86816 | 529 ft | 77 kts | 0° |
| 2026-04-21 16:07 | 9.34125 | -79.86813 | 368 ft | 72 kts | 7° |
| 2026-04-21 16:07 | 9.34612 | -79.86777 | 121 ft | 66 kts | 1° |
| 2026-04-21 16:07 | 9.34999 | -79.86761 | 31 ft | 42 kts | 359° |
| 2026-04-21 16:08 | 9.35232 | -79.86756 | 30 ft | 28 kts | 0° |
| 2026-04-21 16:08 | 9.35309 | -79.86754 | 31 ft | 26 kts | 2° |
| 2026-04-21 16:09 | 9.35356 | -79.86752 | 31 ft | 27 kts | 2° |
| 2026-04-21 16:09 | 9.35701 | -79.86744 | 38 ft | 67 kts | 358° |
| 2026-04-21 16:09 | 9.36184 | -79.86732 | 204 ft | 70 kts | 358° |
| 2026-04-21 16:09 | 9.36685 | -79.86715 | 365 ft | 69 kts | 354° |
| 2026-04-21 16:10 | 9.37163 | -79.86659 | 565 ft | 66 kts | 358° |
| 2026-04-21 16:10 | 9.37658 | -79.86620 | 687 ft | 81 kts | 1° |
| 2026-04-21 16:10 | 9.38225 | -79.86648 | 1018 ft | 77 kts | 336° |
| 2026-04-21 16:10 | 9.38465 | -79.87208 | 929 ft | 107 kts | 270° |
| 2026-04-21 16:11 | 9.38408 | -79.87930 | 1055 ft | 95 kts | 269° |
| 2026-04-21 16:11 | 9.38054 | -79.88513 | 1203 ft | 109 kts | 205° |
| 2026-04-21 16:11 | 9.37693 | -79.88557 | 1182 ft | 120 kts | 178° |
| 2026-04-21 16:11 | 9.37274 | -79.88552 | 1227 ft | 125 kts | 191° |
| 2026-04-21 16:12 | 9.37247 | -79.88556 | 1237 ft | 124 kts | 192° |
| 2026-04-21 16:13 | 9.37213 | -79.88563 | 1255 ft | 123 kts | 193° |
| 2026-04-21 16:14 | 9.37133 | -79.88583 | 1298 ft | 119 kts | 197° |
| 2026-04-21 16:14 | 9.36738 | -79.88594 | 1326 ft | 119 kts | 172° |
| 2026-04-21 16:15 | 9.36480 | -79.88527 | 1097 ft | 138 kts | 160° |